Time;durP1;ratioP1;P1;durP2;ratioP2;P2;SDS_P1;SDS_P2;PMS_P1;PMS_P2;Temp;Humidity;BMP_temperature;BMP_pressure;BME280_temperature;BME280_humidity;BME280_pressure;Samples;Min_cycle;Max_cycle;Signal;HPM_P1;HPM_P2
2023/04/29 00:00:16;;;;;;;0.17;0.17;;;22.20;60.20;;;;;;6126358;29;20054;-50
2023/04/29 00:03:18;;;;;;;0.30;0.30;;;22.10;60.10;;;;;;6126492;29;20122;-50
2023/04/29 00:06:23;;;;;;;0.30;0.30;;;22.10;60.30;;;;;;6130111;29;20052;-52
2023/04/29 00:09:24;;;;;;;0.20;0.20;;;22.00;60.10;;;;;;6130404;29;20091;-53
2023/04/29 00:12:30;;;;;;;0.20;0.20;;;21.90;60.30;;;;;;6130924;29;20044;-53
2023/04/29 00:15:32;;;;;;;0.30;0.30;;;22.00;60.20;;;;;;6130440;29;20488;-54
2023/04/29 00:18:33;;;;;;;0.20;0.20;;;21.90;60.10;;;;;;6130191;29;20040;-53
2023/04/29 00:21:38;;;;;;;0.20;0.20;;;22.20;60.10;;;;;;6130687;29;20071;-53
2023/04/29 00:24:40;;;;;;;0.20;0.20;;;21.90;60.10;;;;;;6130672;29;20480;-50
2023/04/29 00:27:41;;;;;;;;;;;22.10;60.20;;;;;;6130522;29;20054;-52
2023/04/29 00:30:44;;;;;;;0.20;0.20;;;21.90;60.40;;;;;;6130332;29;19930;-53
2023/04/29 00:33:45;;;;;;;0.20;0.10;;;22.00;60.30;;;;;;6130695;29;20118;-50
2023/04/29 00:36:47;;;;;;;0.30;0.30;;;22.00;60.20;;;;;;6129909;29;20051;-53
2023/04/29 00:39:48;;;;;;;;;;;22.20;60.30;;;;;;6130555;29;20043;-52
2023/04/29 00:42:50;;;;;;;0.10;0.10;;;22.00;60.60;;;;;;6130230;29;20275;-52
2023/04/29 00:45:52;;;;;;;0.30;0.30;;;22.20;60.50;;;;;;6129665;29;20083;-54
2023/04/29 00:48:53;;;;;;;0.10;0.10;;;22.10;60.40;;;;;;6130853;29;20052;-52
2023/04/29 00:51:56;;;;;;;;;;;21.90;60.10;;;;;;6129890;29;20055;-52
2023/04/29 00:54:58;;;;;;;0.20;0.20;;;21.90;60.50;;;;;;6129409;29;19977;-54
2023/04/29 00:58:03;;;;;;;0.20;0.20;;;22.10;60.40;;;;;;6129415;29;20044;-54
2023/04/29 01:01:05;;;;;;;0.22;0.20;;;22.00;60.20;;;;;;6128110;29;20063;-53
2023/04/29 01:04:07;;;;;;;0.20;0.20;;;21.80;60.30;;;;;;6129175;29;20065;-54
2023/04/29 01:07:14;;;;;;;0.30;0.30;;;21.90;60.40;;;;;;6095655;29;20048;-54
2023/04/29 01:10:27;;;;;;;0.30;0.30;;;22.00;60.30;;;;;;6129670;29;20500;-51
2023/04/29 01:13:36;;;;;;;0.38;0.38;;;22.10;60.50;;;;;;6129204;29;20035;-53
2023/04/29 01:16:47;;;;;;;0.20;0.20;;;21.90;60.30;;;;;;6128137;29;20130;-53
2023/04/29 01:19:55;;;;;;;0.30;0.30;;;22.10;60.40;;;;;;6129026;29;20062;-54
2023/04/29 01:22:56;;;;;;;0.40;0.30;;;21.90;61.00;;;;;;6129172;29;20048;-53
2023/04/29 01:25:59;;;;;;;0.30;0.30;;;22.10;60.60;;;;;;6128963;29;20130;-54
2023/04/29 01:29:27;;;;;;;0.30;0.30;;;21.70;60.30;;;;;;6129204;29;20051;-54
2023/04/29 01:32:42;;;;;;;0.23;0.20;;;21.80;60.30;;;;;;6128975;29;20079;-53
2023/04/29 01:36:05;;;;;;;0.20;0.20;;;21.90;60.30;;;;;;6128483;29;20083;-53
2023/04/29 01:39:13;;;;;;;0.20;0.20;;;21.90;60.30;;;;;;6128781;29;20043;-52
2023/04/29 01:42:22;;;;;;;0.25;0.25;;;21.70;60.20;;;;;;6127850;29;20048;-54
2023/04/29 01:45:26;;;;;;;0.30;0.30;;;21.80;60.40;;;;;;6128388;29;20055;-52
2023/04/29 01:48:28;;;;;;;0.20;0.10;;;21.90;61.20;;;;;;6128244;29;20059;-54
2023/04/29 01:51:32;;;;;;;0.30;0.30;;;22.10;60.70;;;;;;6128756;29;20418;-53
2023/04/29 01:54:36;;;;;;;0.20;0.20;;;22.00;58.10;;;;;;6128354;29;20047;-52
2023/04/29 01:57:38;;;;;;;0.20;0.17;;;21.90;60.70;;;;;;6128824;29;20467;-53
2023/04/29 02:00:51;;;;;;;0.20;0.20;;;21.80;60.60;;;;;;6128744;29;20504;-53
2023/04/29 02:03:53;;;;;;;0.20;0.10;;;21.90;60.70;;;;;;6128410;29;20495;-54
2023/04/29 02:06:55;;;;;;;0.20;0.20;;;21.60;60.60;;;;;;6127950;29;20060;-55
2023/04/29 02:09:58;;;;;;;0.15;0.15;;;21.80;60.70;;;;;;6128676;29;20081;-53
2023/04/29 02:13:00;;;;;;;0.75;0.20;;;21.90;60.70;;;;;;6128222;29;20094;-52
2023/04/29 02:16:09;;;;;;;0.20;0.20;;;21.60;60.50;;;;;;6128159;29;20056;-54
2023/04/29 02:19:13;;;;;;;0.10;0.10;;;21.70;60.50;;;;;;6126800;29;20107;-54
2023/04/29 02:22:14;;;;;;;0.10;0.10;;;21.70;60.80;;;;;;6128126;29;20043;-54
2023/04/29 02:25:16;;;;;;;0.20;0.20;;;22.30;60.60;;;;;;6127974;29;20051;-54
2023/04/29 02:28:18;;;;;;;0.10;0.10;;;21.90;60.80;;;;;;6128316;29;20044;-54
2023/04/29 02:31:19;;;;;;;0.10;0.10;;;21.90;60.80;;;;;;6127962;29;20094;-54
2023/04/29 02:34:25;;;;;;;0.10;0.10;;;21.90;60.70;;;;;;6127855;29;20051;-54
2023/04/29 02:37:27;;;;;;;0.20;0.20;;;21.70;60.30;;;;;;6128451;29;20496;-54
2023/04/29 02:40:29;;;;;;;;;;;21.80;60.50;;;;;;6128553;29;20083;-51
2023/04/29 02:43:31;;;;;;;0.10;0.10;;;21.80;60.90;;;;;;6127761;29;20449;-54
2023/04/29 02:46:35;;;;;;;0.10;0.10;;;21.60;60.50;;;;;;6127995;29;20472;-53
2023/04/29 02:49:36;;;;;;;0.10;0.10;;;21.80;60.60;;;;;;6127851;29;20080;-54
2023/04/29 02:52:40;;;;;;;0.10;0.10;;;22.00;60.70;;;;;;6127576;29;20043;-52
2023/04/29 02:55:42;;;;;;;0.10;0.10;;;21.60;60.10;;;;;;6127422;29;20055;-53
2023/04/29 02:58:45;;;;;;;0.20;0.20;;;21.70;60.40;;;;;;6127574;29;20043;-54
2023/04/29 03:01:46;;;;;;;0.20;0.20;;;21.90;60.50;;;;;;6127458;29;20059;-54
2023/04/29 03:04:48;;;;;;;0.20;0.20;;;21.80;60.50;;;;;;6127171;29;20582;-54
2023/04/29 03:07:49;;;;;;;0.10;0.10;;;21.60;60.40;;;;;;6127519;29;20051;-53
2023/04/29 03:10:51;;;;;;;;;;;21.70;60.70;;;;;;6127765;29;20043;-53
2023/04/29 03:13:54;;;;;;;0.25;0.25;;;21.80;61.10;;;;;;6127659;29;20488;-52
2023/04/29 03:16:58;;;;;;;0.15;0.15;;;21.80;60.70;;;;;;6127340;29;20078;-54
2023/04/29 03:20:00;;;;;;;0.20;0.20;;;21.80;60.90;;;;;;6127124;29;20481;-53
2023/04/29 03:23:02;;;;;;;0.30;0.30;;;21.80;61.00;;;;;;6126997;29;20035;-53
2023/04/29 03:26:03;;;;;;;0.30;0.20;;;22.00;61.00;;;;;;6127199;29;20604;-53
2023/04/29 03:29:05;;;;;;;;;;;21.80;61.10;;;;;;6127471;29;20047;-53
2023/04/29 03:32:08;;;;;;;0.30;0.30;;;21.80;61.50;;;;;;6126876;29;19922;-54
2023/04/29 03:35:12;;;;;;;0.30;0.30;;;21.80;61.90;;;;;;6127168;29;20047;-54
2023/04/29 03:38:36;;;;;;;0.30;0.30;;;21.80;61.40;;;;;;6126776;29;20130;-52
2023/04/29 03:41:39;;;;;;;0.50;0.40;;;21.40;61.30;;;;;;6126253;29;20058;-52
2023/04/29 03:44:41;;;;;;;0.40;0.35;;;21.70;61.50;;;;;;6126376;29;20051;-53
2023/04/29 03:47:44;;;;;;;0.40;0.40;;;21.80;61.60;;;;;;6126703;29;20059;-53
2023/04/29 03:50:46;;;;;;;0.30;0.30;;;21.70;61.70;;;;;;6126640;29;20039;-53
2023/04/29 03:53:48;;;;;;;0.52;0.40;;;21.60;61.60;;;;;;6126929;29;20048;-54
2023/04/29 03:56:49;;;;;;;0.38;0.35;;;21.70;61.30;;;;;;6126641;29;20055;-53
2023/04/29 03:59:51;;;;;;;0.47;0.40;;;21.80;61.90;;;;;;6126443;29;20047;-54
2023/04/29 04:02:53;;;;;;;0.52;0.50;;;21.60;61.80;;;;;;6126749;29;20040;-54
2023/04/29 04:05:56;;;;;;;0.47;0.30;;;21.70;62.00;;;;;;6126406;29;20051;-54
2023/04/29 04:08:57;;;;;;;0.30;0.30;;;21.70;62.00;;;;;;6125242;29;20060;-54
2023/04/29 04:12:03;;;;;;;0.30;0.30;;;21.50;62.10;;;;;;6126684;29;20051;-54
2023/04/29 04:15:05;;;;;;;0.32;0.30;;;21.70;62.20;;;;;;6126425;29;20048;-54
2023/04/29 04:18:08;;;;;;;0.45;0.45;;;21.80;62.30;;;;;;6126221;29;20519;-52
2023/04/29 04:21:11;;;;;;;0.30;0.30;;;21.80;62.50;;;;;;6126114;29;20059;-53
2023/04/29 04:24:15;;;;;;;0.45;0.32;;;21.70;62.30;;;;;;6124963;29;20067;-54
2023/04/29 04:27:16;;;;;;;;;;;21.70;62.50;;;;;;6126441;29;20393;-54
2023/04/29 04:30:21;;;;;;;0.30;0.30;;;21.40;62.80;;;;;;6126658;29;19923;-53
2023/04/29 04:33:24;;;;;;;0.38;0.38;;;21.70;62.90;;;;;;6126214;29;20130;-54
2023/04/29 04:36:25;;;;;;;0.28;0.28;;;21.70;63.00;;;;;;6126030;29;20048;-52
2023/04/29 04:39:28;;;;;;;0.40;0.40;;;21.80;63.10;;;;;;6125826;29;20420;-54
2023/04/29 04:42:32;;;;;;;0.30;0.30;;;21.70;63.00;;;;;;6126064;29;20400;-54
2023/04/29 04:45:34;;;;;;;0.50;0.38;;;21.70;63.40;;;;;;6125886;29;20059;-54
2023/04/29 04:48:35;;;;;;;0.40;0.35;;;21.70;63.40;;;;;;6125668;29;20051;-55
2023/04/29 04:51:37;;;;;;;;;;;21.60;63.70;;;;;;6126671;29;20043;-54
2023/04/29 04:54:40;;;;;;;0.43;0.30;;;21.80;64.10;;;;;;6129896;29;20005;-54
2023/04/29 04:57:50;;;;;;;0.30;0.30;;;21.70;63.50;;;;;;6143976;29;20052;-54
2023/04/29 05:00:52;;;;;;;0.28;0.28;;;21.60;64.00;;;;;;6128560;29;20055;-54
2023/04/29 05:03:57;;;;;;;0.40;0.32;;;21.60;64.10;;;;;;6129571;29;20183;-54
2023/04/29 05:06:59;;;;;;;0.40;0.40;;;21.70;64.30;;;;;;6129448;29;20051;-54
2023/04/29 05:10:07;;;;;;;0.20;0.20;;;21.60;64.60;;;;;;6129760;29;20048;-54
2023/04/29 05:13:14;;;;;;;0.30;0.30;;;21.70;64.50;;;;;;6129501;29;20095;-53
2023/04/29 05:16:17;;;;;;;0.20;0.20;;;21.40;65.20;;;;;;6129383;29;20083;-52
2023/04/29 05:19:21;;;;;;;0.20;0.20;;;21.50;64.90;;;;;;6129586;29;20459;-54
2023/04/29 05:22:23;;;;;;;0.30;0.30;;;21.40;65.00;;;;;;6129381;29;20039;-54
2023/04/29 05:25:24;;;;;;;0.20;0.20;;;21.60;65.10;;;;;;6129062;29;20106;-54
2023/04/29 05:28:28;;;;;;;0.20;0.20;;;21.70;65.00;;;;;;6129486;29;20478;-50
2023/04/29 05:31:32;;;;;;;0.30;0.30;;;21.40;65.10;;;;;;6129421;29;20102;-54
2023/04/29 05:34:36;;;;;;;0.32;0.32;;;21.60;65.20;;;;;;6129098;29;20047;-54
2023/04/29 05:37:38;;;;;;;0.22;0.22;;;21.60;65.50;;;;;;6129554;29;20051;-54
2023/04/29 05:40:53;;;;;;;0.30;0.30;;;21.60;65.60;;;;;;6129119;29;20503;-54
2023/04/29 05:44:11;;;;;;;0.30;0.30;;;21.70;65.70;;;;;;6129029;29;20412;-53
2023/04/29 05:47:14;;;;;;;0.20;0.20;;;21.60;65.90;;;;;;6128679;29;20047;-54
2023/04/29 05:50:16;;;;;;;0.25;0.25;;;21.60;64.00;;;;;;6129041;29;20619;-54
2023/04/29 05:53:19;;;;;;;0.30;0.25;;;21.40;65.50;;;;;;6128875;29;20131;-51
2023/04/29 05:56:24;;;;;;;0.17;0.17;;;21.60;66.20;;;;;;6128964;29;20044;-52
2023/04/29 05:59:25;;;;;;;0.30;0.30;;;21.50;66.30;;;;;;6127332;29;20052;-54
2023/04/29 06:02:31;;;;;;;0.30;0.30;;;21.60;66.50;;;;;;6128159;29;20624;-54
2023/04/29 06:05:35;;;;;;;0.40;0.40;;;21.40;66.60;;;;;;6128443;29;20472;-54
2023/04/29 06:08:57;;;;;;;0.40;0.30;;;21.60;66.80;;;;;;6128219;29;20046;-52
2023/04/29 06:12:03;;;;;;;0.20;0.20;;;21.50;67.00;;;;;;6128261;29;20127;-53
2023/04/29 06:15:07;;;;;;;0.35;0.35;;;21.60;67.00;;;;;;6128366;29;20048;-53
2023/04/29 06:18:09;;;;;;;0.63;0.30;;;21.60;67.10;;;;;;6128223;29;20492;-54
2023/04/29 06:21:11;;;;;;;0.50;0.40;;;21.60;67.40;;;;;;6128142;29;20048;-53
2023/04/29 06:24:12;;;;;;;0.20;0.20;;;21.60;67.60;;;;;;6128370;29;20054;-53
2023/04/29 06:27:14;;;;;;;;;;;21.60;68.00;;;;;;6128350;29;20059;-53
2023/04/29 06:30:15;;;;;;;;;;;21.60;68.80;;;;;;6128415;29;20379;-54
2023/04/29 06:33:19;;;;;;;0.60;0.40;;;21.40;68.70;;;;;;6128276;29;19927;-54
2023/04/29 06:36:24;;;;;;;0.40;0.40;;;21.20;68.50;;;;;;6127907;29;20051;-52
2023/04/29 06:39:42;;;;;;;0.30;0.30;;;21.50;69.10;;;;;;6127902;29;20175;-53
2023/04/29 06:43:03;;;;;;;0.43;0.40;;;21.60;69.10;;;;;;6127561;29;20290;-53
2023/04/29 06:46:26;;;;;;;0.68;0.43;;;21.20;69.00;;;;;;6127619;29;20048;-53
2023/04/29 06:49:38;;;;;;;0.28;0.28;;;21.50;69.00;;;;;;6127742;29;20047;-53
2023/04/29 06:52:40;;;;;;;0.40;0.40;;;21.40;69.40;;;;;;6127786;29;20469;-52
2023/04/29 06:55:45;;;;;;;0.40;0.40;;;21.50;69.50;;;;;;6127545;29;20059;-52
2023/04/29 06:58:46;;;;;;;0.30;0.30;;;21.50;69.30;;;;;;6127326;29;20055;-54
2023/04/29 07:01:48;;;;;;;0.30;0.30;;;21.30;69.50;;;;;;6127775;29;20048;-54
2023/04/29 07:04:54;;;;;;;0.30;0.30;;;21.50;69.70;;;;;;6127351;29;20055;-54
2023/04/29 07:07:56;;;;;;;0.35;0.30;;;21.60;69.60;;;;;;6127295;29;20094;-53
2023/04/29 07:10:59;;;;;;;0.50;0.40;;;21.60;69.70;;;;;;6127818;29;20043;-54
2023/04/29 07:14:00;;;;;;;;;;;21.60;69.60;;;;;;6126938;29;20055;-53
2023/04/29 07:17:04;;;;;;;0.30;0.30;;;21.90;70.10;;;;;;6127091;29;20371;-53
2023/04/29 07:20:07;;;;;;;0.28;0.28;;;21.30;69.50;;;;;;6127312;29;20050;-50
2023/04/29 07:23:09;;;;;;;0.40;0.30;;;21.50;69.50;;;;;;6127226;29;20039;-52
2023/04/29 07:26:11;;;;;;;0.90;0.50;;;21.50;70.00;;;;;;6126929;29;20043;-53
2023/04/29 07:29:17;;;;;;;0.40;0.40;;;21.60;70.10;;;;;;6126052;29;20404;-54
2023/04/29 07:32:18;;;;;;;0.28;0.28;;;21.70;70.20;;;;;;6127663;29;20040;-53
2023/04/29 07:35:21;;;;;;;0.40;0.40;;;21.50;70.40;;;;;;6126888;29;20444;-53
2023/04/29 07:38:26;;;;;;;0.20;0.20;;;21.60;70.70;;;;;;6127101;29;20452;-53
2023/04/29 07:41:34;;;;;;;0.40;0.40;;;21.60;70.70;;;;;;6126750;29;20044;-52
2023/04/29 07:44:36;;;;;;;0.47;0.43;;;21.70;68.60;;;;;;6109705;29;20412;-53
2023/04/29 07:47:37;;;;;;;0.30;0.30;;;21.60;70.30;;;;;;6126933;29;20059;-53
2023/04/29 07:50:40;;;;;;;0.30;0.30;;;21.50;70.20;;;;;;6126665;29;20656;-53
2023/04/29 07:53:42;;;;;;;0.30;0.30;;;21.60;70.30;;;;;;6126604;29;20386;-53
2023/04/29 07:56:43;;;;;;;0.30;0.30;;;21.50;70.40;;;;;;6126897;29;20510;-52
2023/04/29 07:59:45;;;;;;;0.60;0.30;;;21.40;70.50;;;;;;6126576;29;20046;-53
2023/04/29 08:02:49;;;;;;;0.65;0.50;;;21.50;70.20;;;;;;6126466;29;20044;-52
2023/04/29 08:05:55;;;;;;;0.38;0.30;;;21.60;70.30;;;;;;6126716;29;20424;-52
2023/04/29 08:08:56;;;;;;;0.40;0.40;;;21.50;70.40;;;;;;6126605;29;20044;-53
2023/04/29 08:11:58;;;;;;;0.32;0.32;;;21.60;70.10;;;;;;6126363;29;20099;-53
2023/04/29 08:14:59;;;;;;;;;;;21.60;70.40;;;;;;6126993;29;20537;-53
2023/04/29 08:18:02;;;;;;;0.60;0.40;;;21.70;70.90;;;;;;6126782;29;19990;-51
2023/04/29 08:21:06;;;;;;;0.50;0.40;;;21.50;70.60;;;;;;6126227;29;20417;-53
2023/04/29 08:24:08;;;;;;;0.50;0.50;;;21.60;70.40;;;;;;6126478;29;20052;-53
2023/04/29 08:27:09;;;;;;;0.22;0.20;;;21.60;70.50;;;;;;6129159;29;20393;-51
2023/04/29 08:30:11;;;;;;;0.52;0.50;;;21.60;71.20;;;;;;6130272;29;20492;-52
2023/04/29 08:33:13;;;;;;;0.40;0.30;;;21.60;70.50;;;;;;6130077;29;20448;-53
2023/04/29 08:36:15;;;;;;;0.35;0.28;;;21.60;70.30;;;;;;6130280;29;20052;-53
2023/04/29 08:39:17;;;;;;;0.40;0.30;;;21.70;70.50;;;;;;6130097;29;20047;-51
2023/04/29 08:42:20;;;;;;;;;;;21.60;70.30;;;;;;6130311;29;20074;-53
2023/04/29 08:45:23;;;;;;;0.28;0.28;;;21.80;70.60;;;;;;6130229;29;19930;-53
2023/04/29 08:48:27;;;;;;;0.50;0.50;;;21.70;70.40;;;;;;6129953;29;20048;-54
2023/04/29 08:51:31;;;;;;;0.30;0.30;;;21.80;70.40;;;;;;6129754;29;20098;-52
2023/04/29 08:54:35;;;;;;;0.28;0.28;;;21.40;70.20;;;;;;6130191;29;20318;-52
2023/04/29 08:57:38;;;;;;;0.50;0.40;;;21.60;70.30;;;;;;6129852;29;20377;-53
2023/04/29 09:00:41;;;;;;;0.40;0.40;;;21.70;70.40;;;;;;6129610;29;20040;-53
2023/04/29 09:03:49;;;;;;;0.40;0.40;;;21.70;70.10;;;;;;6128547;29;20039;-52
2023/04/29 09:06:55;;;;;;;0.30;0.30;;;21.60;70.10;;;;;;6128584;29;20075;-53
2023/04/29 09:10:00;;;;;;;0.47;0.35;;;21.80;70.10;;;;;;6129528;29;20389;-52
2023/04/29 09:13:02;;;;;;;0.35;0.30;;;21.70;70.10;;;;;;6129760;29;20091;-53
2023/04/29 09:16:04;;;;;;;;;;;21.70;70.30;;;;;;6129789;29;20051;-53
2023/04/29 09:19:06;;;;;;;0.20;0.20;;;21.60;70.90;;;;;;6129277;29;19995;-53
2023/04/29 09:22:08;;;;;;;0.20;0.20;;;21.60;70.30;;;;;;6129474;29;20040;-53
2023/04/29 09:25:13;;;;;;;0.28;0.28;;;21.70;70.30;;;;;;6129202;29;20110;-52
2023/04/29 09:28:16;;;;;;;0.40;0.40;;;21.70;70.20;;;;;;6129811;29;20044;-53
2023/04/29 09:31:26;;;;;;;0.30;0.30;;;21.70;70.30;;;;;;6127949;29;20043;-53
2023/04/29 09:34:34;;;;;;;0.22;0.22;;;21.70;70.50;;;;;;6129190;29;20052;-52
2023/04/29 09:37:37;;;;;;;0.57;0.30;;;21.80;70.30;;;;;;6128012;29;20504;-51
2023/04/29 09:40:40;;;;;;;0.30;0.30;;;21.80;70.50;;;;;;6129238;29;20039;-53
2023/04/29 09:44:04;;;;;;;0.25;0.25;;;21.80;70.70;;;;;;6114738;29;20118;-52
2023/04/29 09:47:07;;;;;;;0.40;0.40;;;21.70;70.20;;;;;;6128870;29;20046;-54
2023/04/29 09:50:12;;;;;;;0.28;0.28;;;21.70;70.10;;;;;;6128629;29;20048;-52
2023/04/29 09:53:28;;;;;;;0.32;0.32;;;21.70;70.20;;;;;;6128976;29;20039;-51
2023/04/29 09:56:48;;;;;;;0.40;0.38;;;21.70;70.30;;;;;;6112204;29;20044;-52
2023/04/29 09:59:52;;;;;;;0.40;0.40;;;21.80;70.30;;;;;;6127348;29;20067;-53
2023/04/29 10:02:57;;;;;;;0.32;0.30;;;21.80;70.20;;;;;;6128680;29;20396;-52
2023/04/29 10:06:00;;;;;;;0.30;0.30;;;21.60;70.20;;;;;;6127217;29;20058;-53
2023/04/29 10:09:02;;;;;;;0.47;0.40;;;21.60;70.40;;;;;;6128710;29;20115;-51
2023/04/29 10:12:06;;;;;;;0.40;0.40;;;21.80;70.20;;;;;;6128540;29;20040;-53
2023/04/29 10:15:19;;;;;;;0.30;0.30;;;22.10;67.70;;;;;;6128315;29;20050;-50
2023/04/29 10:18:25;;;;;;;0.40;0.35;;;21.80;70.20;;;;;;6127107;29;20044;-51
2023/04/29 10:21:28;;;;;;;0.38;0.38;;;21.80;70.30;;;;;;6128270;29;20052;-52
2023/04/29 10:24:42;;;;;;;0.30;0.30;;;21.80;70.50;;;;;;6128028;29;20134;-53
2023/04/29 10:27:50;;;;;;;0.50;0.45;;;21.80;70.70;;;;;;6128329;29;20109;-54
2023/04/29 10:30:57;;;;;;;0.30;0.30;;;21.90;70.60;;;;;;6111516;29;20039;-53
2023/04/29 10:34:00;;;;;;;0.50;0.40;;;21.90;71.00;;;;;;6128098;29;20087;-53
2023/04/29 10:37:04;;;;;;;0.45;0.45;;;21.80;70.80;;;;;;6128483;29;20055;-53
2023/04/29 10:40:12;;;;;;;0.40;0.40;;;21.90;71.00;;;;;;6128005;29;20404;-53
2023/04/29 10:43:14;;;;;;;0.40;0.40;;;22.00;70.90;;;;;;6127849;29;20105;-53
2023/04/29 10:46:20;;;;;;;0.63;0.50;;;22.00;71.00;;;;;;6127585;29;20051;-51
2023/04/29 10:49:21;;;;;;;0.50;0.40;;;22.10;71.00;;;;;;6126793;29;20617;-52
2023/04/29 10:52:27;;;;;;;0.50;0.30;;;22.00;70.80;;;;;;6128091;29;20068;-53
2023/04/29 10:55:29;;;;;;;0.30;0.30;;;22.00;71.00;;;;;;6128231;29;20403;-54
2023/04/29 10:58:43;;;;;;;0.40;0.40;;;22.00;70.30;;;;;;6127744;29;20043;-53
2023/04/29 11:01:48;;;;;;;0.60;0.50;;;22.00;70.30;;;;;;6127397;29;20415;-52
2023/04/29 11:05:11;;;;;;;0.20;0.20;;;21.90;70.10;;;;;;6127592;29;20040;-53
2023/04/29 11:08:15;;;;;;;0.50;0.50;;;22.00;70.30;;;;;;6128111;29;20047;-50
2023/04/29 11:11:19;;;;;;;0.55;0.50;;;22.10;70.20;;;;;;6127276;29;20385;-53
2023/04/29 11:14:24;;;;;;;0.22;0.20;;;22.10;70.10;;;;;;6127521;29;20404;-53
2023/04/29 11:17:26;;;;;;;0.47;0.43;;;22.20;70.10;;;;;;6126225;29;20052;-52
2023/04/29 11:20:29;;;;;;;0.50;0.40;;;22.20;70.10;;;;;;6127037;29;20044;-53
2023/04/29 11:23:33;;;;;;;0.40;0.38;;;22.10;70.10;;;;;;6127616;29;20118;-51
2023/04/29 11:26:36;;;;;;;0.40;0.40;;;22.00;69.90;;;;;;6125815;29;20380;-53
2023/04/29 11:29:37;;;;;;;0.45;0.40;;;22.20;69.90;;;;;;6110170;29;20067;-52
2023/04/29 11:32:41;;;;;;;0.50;0.50;;;22.00;70.00;;;;;;6126978;29;20487;-53
2023/04/29 11:35:43;;;;;;;0.40;0.40;;;22.20;69.90;;;;;;6125898;29;20052;-53
2023/04/29 11:38:46;;;;;;;0.50;0.50;;;22.10;70.10;;;;;;6127051;29;20496;-54
2023/04/29 11:41:49;;;;;;;0.40;0.40;;;22.30;70.10;;;;;;6126833;29;20043;-51
2023/04/29 11:44:56;;;;;;;0.40;0.40;;;22.30;70.00;;;;;;6126699;29;20519;-51
2023/04/29 11:47:58;;;;;;;0.40;0.40;;;22.10;69.80;;;;;;6126880;29;20047;-49
2023/04/29 11:50:59;;;;;;;;;;;22.30;70.10;;;;;;6127535;29;20131;-54
2023/04/29 11:54:01;;;;;;;0.35;0.35;;;22.40;70.40;;;;;;6126566;29;19922;-53
2023/04/29 11:57:03;;;;;;;;;;;22.20;69.90;;;;;;6128230;29;20044;-54
2023/04/29 12:00:07;;;;;;;0.40;0.40;;;22.30;70.10;;;;;;6127097;29;19930;-53
2023/04/29 12:03:13;;;;;;;0.40;0.40;;;22.30;69.70;;;;;;6130733;29;20052;-53
2023/04/29 12:06:15;;;;;;;0.40;0.40;;;22.40;69.70;;;;;;6130906;29;20135;-52
2023/04/29 12:09:18;;;;;;;0.40;0.40;;;22.20;70.00;;;;;;6130613;29;20043;-52
2023/04/29 12:12:23;;;;;;;0.40;0.40;;;22.40;70.10;;;;;;6130528;29;20044;-53
2023/04/29 12:15:25;;;;;;;0.30;0.30;;;22.50;70.00;;;;;;6130834;29;20044;-53
2023/04/29 12:18:27;;;;;;;0.40;0.40;;;22.50;70.00;;;;;;6130559;29;20401;-52
2023/04/29 12:21:30;;;;;;;0.30;0.30;;;22.50;69.90;;;;;;6129281;29;20079;-53
2023/04/29 12:24:34;;;;;;;0.40;0.40;;;22.40;70.00;;;;;;6144652;29;20082;-54
2023/04/29 12:27:40;;;;;;;0.32;0.32;;;22.50;69.80;;;;;;6130761;29;20054;-53
2023/04/29 12:30:43;;;;;;;0.30;0.30;;;22.50;69.80;;;;;;6114351;29;20051;-53
2023/04/29 12:33:45;;;;;;;0.43;0.40;;;22.50;69.90;;;;;;6129114;29;20511;-53
2023/04/29 12:36:46;;;;;;;;;;;22.50;69.80;;;;;;6130854;29;20126;-53
2023/04/29 12:39:49;;;;;;;0.35;0.32;;;22.60;70.20;;;;;;6130157;29;19929;-52
2023/04/29 12:42:53;;;;;;;0.45;0.45;;;22.60;69.60;;;;;;6131363;29;20201;-51
2023/04/29 12:46:00;;;;;;;0.40;0.40;;;22.70;69.70;;;;;;6130070;29;20043;-54
2023/04/29 12:49:02;;;;;;;0.20;0.20;;;22.70;69.40;;;;;;6129935;29;20048;-52
2023/04/29 12:52:08;;;;;;;0.65;0.50;;;22.70;70.10;;;;;;6128643;29;20048;-53
2023/04/29 12:55:10;;;;;;;0.30;0.30;;;22.70;69.50;;;;;;6130017;29;20043;-54
2023/04/29 12:58:13;;;;;;;0.40;0.40;;;22.80;69.30;;;;;;6129772;29;20048;-49
2023/04/29 13:01:15;;;;;;;0.50;0.43;;;22.80;69.20;;;;;;6129644;29;20107;-51
2023/04/29 13:04:20;;;;;;;0.35;0.35;;;22.80;69.20;;;;;;6129914;29;20050;-54
2023/04/29 13:07:22;;;;;;;0.40;0.40;;;22.90;69.10;;;;;;6129520;29;20064;-54
2023/04/29 13:10:23;;;;;;;0.40;0.22;;;22.70;69.00;;;;;;6129506;29;20175;-53
2023/04/29 13:13:28;;;;;;;0.30;0.25;;;22.90;69.00;;;;;;6128714;29;20047;-53
2023/04/29 13:16:29;;;;;;;0.22;0.22;;;23.00;67.00;;;;;;6129258;29;20131;-51
2023/04/29 13:19:34;;;;;;;0.20;0.20;;;22.90;68.60;;;;;;6129265;29;20048;-52
2023/04/29 13:22:52;;;;;;;0.30;0.28;;;22.80;68.50;;;;;;6129607;29;20130;-51
2023/04/29 13:25:53;;;;;;;0.30;0.30;;;23.00;68.10;;;;;;6129156;29;20052;-54
2023/04/29 13:28:56;;;;;;;;;;;23.00;68.10;;;;;;6129653;29;20386;-53
2023/04/29 13:31:58;;;;;;;0.20;0.20;;;22.90;68.30;;;;;;6129453;29;19952;-51
2023/04/29 13:35:02;;;;;;;0.40;0.30;;;23.10;68.10;;;;;;6129826;29;20484;-54
2023/04/29 13:38:04;;;;;;;0.20;0.20;;;23.00;65.90;;;;;;6128828;29;20051;-51
2023/04/29 13:41:06;;;;;;;0.30;0.30;;;23.00;67.80;;;;;;6129285;29;20051;-53
2023/04/29 13:44:17;;;;;;;0.20;0.20;;;23.20;68.10;;;;;;6129037;29;20063;-52
2023/04/29 13:47:36;;;;;;;0.20;0.20;;;23.10;67.20;;;;;;6128790;29;20047;-53
2023/04/29 13:50:58;;;;;;;;;;;23.30;67.30;;;;;;6128175;29;20074;-52
2023/04/29 13:54:20;;;;;;;0.20;0.10;;;23.70;67.80;;;;;;6128026;29;19944;-52
2023/04/29 13:57:26;;;;;;;0.30;0.30;;;23.20;67.10;;;;;;6128690;29;20040;-51
2023/04/29 14:00:48;;;;;;;0.30;0.30;;;23.30;66.90;;;;;;6127483;29;20039;-53
2023/04/29 14:04:09;;;;;;;0.30;0.30;;;23.50;66.70;;;;;;6127494;29;20040;-52
2023/04/29 14:07:11;;;;;;;0.20;0.20;;;23.30;67.00;;;;;;6128610;29;20044;-52
2023/04/29 14:10:12;;;;;;;;;;;23.40;66.50;;;;;;6128853;29;20044;-51
2023/04/29 14:13:14;;;;;;;0.25;0.20;;;23.60;66.70;;;;;;6128325;29;19952;-53
2023/04/29 14:16:16;;;;;;;0.20;0.20;;;23.30;65.80;;;;;;6128515;29;20055;-53
2023/04/29 14:19:18;;;;;;;0.30;0.30;;;23.40;65.70;;;;;;6128350;29;20050;-53
2023/04/29 14:22:20;;;;;;;0.20;0.20;;;23.40;65.90;;;;;;6128709;29;20056;-52
2023/04/29 14:25:22;;;;;;;0.20;0.20;;;23.40;65.50;;;;;;6128047;29;20048;-51
2023/04/29 14:28:23;;;;;;;;;;;23.50;65.50;;;;;;6128515;29;20119;-52
2023/04/29 14:31:27;;;;;;;0.20;0.20;;;23.80;65.80;;;;;;6127980;29;19934;-49
2023/04/29 14:34:28;;;;;;;0.35;0.32;;;23.50;64.80;;;;;;6126891;29;20071;-53
2023/04/29 14:37:29;;;;;;;;;;;23.30;64.50;;;;;;6128489;29;20096;-52
2023/04/29 14:40:31;;;;;;;0.20;0.20;;;23.80;64.80;;;;;;6127834;29;19926;-54
2023/04/29 14:43:32;;;;;;;0.20;0.20;;;23.60;64.60;;;;;;6128135;29;20055;-53
2023/04/29 14:46:34;;;;;;;0.30;0.30;;;23.70;64.30;;;;;;6127548;29;20047;-53
2023/04/29 14:49:36;;;;;;;0.30;0.30;;;23.60;63.70;;;;;;6127652;29;20044;-54
2023/04/29 14:52:38;;;;;;;0.22;0.20;;;23.60;63.00;;;;;;6127989;29;20077;-51
2023/04/29 14:55:39;;;;;;;0.32;0.30;;;23.60;62.50;;;;;;6128341;29;20456;-52
2023/04/29 14:58:40;;;;;;;;;;;23.70;61.90;;;;;;6127889;29;20158;-53
2023/04/29 15:01:42;;;;;;;0.20;0.20;;;23.70;61.60;;;;;;6127846;29;19923;-53
2023/04/29 15:04:45;;;;;;;0.30;0.30;;;23.70;60.80;;;;;;6127626;29;20412;-51
2023/04/29 15:07:50;;;;;;;0.28;0.28;;;23.80;60.50;;;;;;6127148;29;20048;-52
2023/04/29 15:10:52;;;;;;;0.28;0.28;;;23.80;59.80;;;;;;6126822;29;20054;-52
2023/04/29 15:13:54;;;;;;;0.20;0.20;;;23.90;59.20;;;;;;6127299;29;20044;-51
2023/04/29 15:16:56;;;;;;;0.30;0.30;;;23.70;58.60;;;;;;6127209;29;20504;-54
2023/04/29 15:19:57;;;;;;;0.30;0.30;;;23.70;58.00;;;;;;6127339;29;20047;-53
2023/04/29 15:23:02;;;;;;;0.30;0.30;;;23.80;57.40;;;;;;6127172;29;20043;-51
2023/04/29 15:26:06;;;;;;;0.17;0.10;;;24.00;56.80;;;;;;6125830;29;20515;-54
2023/04/29 15:29:08;;;;;;;0.25;0.25;;;23.90;54.60;;;;;;6127322;29;20076;-54
2023/04/29 15:32:10;;;;;;;0.30;0.30;;;24.00;53.00;;;;;;6127008;29;20050;-52
2023/04/29 15:35:12;;;;;;;0.20;0.20;;;24.00;52.40;;;;;;6126224;29;20044;-54
2023/04/29 15:38:13;;;;;;;0.30;0.30;;;24.00;52.00;;;;;;6127339;29;20500;-53
2023/04/29 15:41:15;;;;;;;;;;;23.70;51.50;;;;;;6127318;29;20063;-52
2023/04/29 15:44:19;;;;;;;0.25;0.25;;;24.30;52.10;;;;;;6126806;29;20009;-52
2023/04/29 15:47:21;;;;;;;0.30;0.30;;;23.70;51.40;;;;;;6126953;29;20040;-54
2023/04/29 15:50:23;;;;;;;0.20;0.20;;;23.90;51.20;;;;;;6126790;29;20044;-51
2023/04/29 15:53:27;;;;;;;0.20;0.20;;;24.10;50.80;;;;;;6126705;29;20496;-54
2023/04/29 15:56:29;;;;;;;0.20;0.20;;;23.90;50.70;;;;;;6126922;29;20071;-51
2023/04/29 15:59:31;;;;;;;0.30;0.30;;;24.20;50.30;;;;;;6127010;29;20565;-52
2023/04/29 16:02:33;;;;;;;0.20;0.20;;;23.90;51.00;;;;;;6125418;29;20051;-51
2023/04/29 16:05:35;;;;;;;0.30;0.30;;;23.90;50.30;;;;;;6126501;29;20040;-53